METARs

lähialueen METAR Raportit

 

EFUT - Utti, Kouvola, FINLAND
Etäisyys asemasta: KA 0,7mi, 1km
Päivitetty: 11-11-2019 22:50
Light snow, Täysin pilvistä
Light snow, Täysin pilvistä
 Tuulen suunta LLU
Tuuli: LLU 6 mph , 9 km/h
Lämpötila: 30°F , -1°C
Hyytävyys: 24°F , -4°C
Kastepiste: 28°F , -2°C
Kosteus: 93%
Ilmanpaine: 29.85 inHg , 1011 hPa
Yhteenveto: Light Snow
Pilvisyys: Täysin pilvistä
Näkyvyys: 6 miles , 10 km
Pilveily: Täysin pilvistä 300 ft
2019/11/11 20:50 EFUT 112050Z AUTO 30005KT 260V340 9999 -SN OVC003 M01/M02 Q1011
EFLP - Lappeenranta, FINLAND
Etäisyys asemasta: I 42mi, 67km
Päivitetty: 11-11-2019 22:50
utua, Täysin pilvistä
utua, Täysin pilvistä
 Tuulen suunta LLU
Tuuli: LLU 6 mph , 9 km/h
Lämpötila: 30°F , -1°C
Hyytävyys: 24°F , -4°C
Kastepiste: 30°F , -1°C
Kosteus: 100%
Ilmanpaine: 29.83 inHg , 1010 hPa
Yhteenveto: utua
Pilvisyys: Täysin pilvistä
Näkyvyys: 1 mile , 2 km
Pilveily: Täysin pilvistä 200 ft
2019/11/11 20:50 EFLP 112050Z AUTO 30005KT 250V350 1600 BR OVC002 M01/M01 Q1010

Metar display script from Saratoga-Weather.org

Page generated in 1.48 seconds.